Time;durP1;ratioP1;P1;durP2;ratioP2;P2;SDS_P1;SDS_P2;PMS_P1;PMS_P2;Temp;Humidity;BMP_temperature;BMP_pressure;BME280_temperature;BME280_humidity;BME280_pressure;Samples;Min_cycle;Max_cycle;Signal;HPM_P1;HPM_P2
2021/06/19 00:00:49;;;;;;;54.17;23.15;;;18.10;99.90;;;;;;5068505;28;20048;-86
2021/06/19 00:03:15;;;;;;;32.65;14.88;;;18.00;99.90;;;;;;5087328;28;20241;-86
2021/06/19 00:05:41;;;;;;;43.67;17.50;;;18.00;99.90;;;;;;5088655;28;20071;-86
2021/06/19 00:08:12;;;;;;;58.95;25.88;;;17.90;99.90;;;;;;5087788;28;20071;-86
2021/06/19 00:10:39;;;;;;;55.63;24.05;;;17.90;99.90;;;;;;5088637;28;20052;-86
2021/06/19 00:13:04;;;;;;;50.22;24.83;;;17.80;99.90;;;;;;5088161;28;20498;-85
2021/06/19 00:15:30;;;;;;;57.20;29.08;;;17.90;99.90;;;;;;5090724;28;20067;-86
2021/06/19 00:17:56;;;;;;;43.25;24.80;;;17.90;99.90;;;;;;5091482;28;20483;-87
2021/06/19 00:20:25;;;;;;;49.50;27.25;;;17.80;99.90;;;;;;5091818;28;20047;-85
2021/06/19 00:22:52;;;;;;;71.35;32.42;;;17.80;99.90;;;;;;5091964;28;20048;-85
2021/06/19 00:25:19;;;;;;;43.25;25.13;;;17.70;99.90;;;;;;5090058;28;20048;-85
2021/06/19 00:27:45;;;;;;;37.47;18.45;;;17.70;99.90;;;;;;5091837;28;20105;-85
2021/06/19 00:30:13;;;;;;;48.08;21.10;;;17.70;99.90;;;;;;5106794;28;20070;-86
2021/06/19 00:32:39;;;;;;;31.02;18.38;;;17.60;99.90;;;;;;5090264;28;20044;-85
2021/06/19 00:35:06;;;;;;;73.28;29.05;;;17.60;99.90;;;;;;5073084;28;20044;-85
2021/06/19 00:37:33;;;;;;;40.38;19.27;;;17.60;99.90;;;;;;5090216;28;20032;-87
2021/06/19 00:39:59;;;;;;;60.88;27.90;;;17.60;99.90;;;;;;5091439;28;20043;-87
2021/06/19 00:42:25;;;;;;;55.22;26.58;;;17.60;99.90;;;;;;5073480;28;20051;-84
2021/06/19 00:44:51;;;;;;;43.13;19.30;;;17.50;99.90;;;;;;5089987;28;20147;-84
2021/06/19 00:47:17;;;;;;;66.22;30.63;;;17.50;99.90;;;;;;5075680;28;20109;-85
2021/06/19 00:49:43;;;;;;;68.53;32.35;;;17.50;99.90;;;;;;5091102;28;20047;-87
2021/06/19 00:52:09;;;;;;;74.93;29.83;;;17.50;99.90;;;;;;5089632;28;20466;-85
2021/06/19 00:54:34;;;;;;;66.60;27.25;;;17.50;99.90;;;;;;5105202;28;20098;-85
2021/06/19 00:57:01;;;;;;;55.20;26.50;;;17.40;99.90;;;;;;5090953;28;20040;-86
2021/06/19 00:59:27;;;;;;;82.70;32.05;;;17.40;99.90;;;;;;5089680;28;20047;-84
2021/06/19 01:01:54;;;;;;;62.53;27.65;;;17.40;99.90;;;;;;5090615;28;20797;-87
2021/06/19 01:04:20;;;;;;;88.30;37.78;;;17.40;99.90;;;;;;5091297;28;20066;-86
2021/06/19 01:06:46;;;;;;;37.70;20.38;;;17.40;99.90;;;;;;5072411;28;20071;-86
2021/06/19 01:09:12;;;;;;;56.42;22.00;;;17.40;99.90;;;;;;5074729;28;20051;-85
2021/06/19 01:11:39;;;;;;;42.40;20.13;;;17.30;99.90;;;;;;5106338;28;20101;-87
2021/06/19 01:14:06;;;;;;;79.35;32.13;;;17.20;99.90;;;;;;5088617;28;20040;-88
2021/06/19 01:16:33;;;;;;;46.75;23.55;;;17.20;99.90;;;;;;5076837;28;20127;-86
2021/06/19 01:18:59;;;;;;;64.07;29.38;;;17.20;99.90;;;;;;5089557;28;20044;-86
2021/06/19 01:21:31;;;;;;;64.93;30.92;;;17.20;99.90;;;;;;5089662;28;20047;-87
2021/06/19 01:23:58;;;;;;;86.97;38.55;;;17.20;99.90;;;;;;5072138;28;20495;-86
2021/06/19 01:26:26;;;;;;;95.15;40.63;;;17.20;99.90;;;;;;5087806;28;20043;-86
2021/06/19 01:28:53;;;;;;;53.70;25.73;;;17.30;99.90;;;;;;5090120;28;20502;-86
2021/06/19 01:31:19;;;;;;;37.65;20.83;;;17.30;99.90;;;;;;5089290;28;20119;-87
2021/06/19 01:33:47;;;;;;;90.75;35.47;;;17.30;99.90;;;;;;5089241;28;20050;-86
2021/06/19 01:36:16;;;;;;;37.10;19.08;;;17.30;99.90;;;;;;5088307;28;20039;-86
2021/06/19 01:38:45;;;;;;;78.15;31.05;;;17.10;99.90;;;;;;5089930;28;20112;-87
2021/06/19 01:41:18;;;;;;;39.63;20.98;;;17.10;99.90;;;;;;5088745;28;20043;-87
2021/06/19 01:43:45;;;;;;;37.58;19.05;;;17.00;99.90;;;;;;5088075;28;20048;-86
2021/06/19 01:46:12;;;;;;;37.95;16.75;;;17.00;99.90;;;;;;5070970;28;20046;-87
2021/06/19 01:48:39;;;;;;;33.65;17.58;;;17.00;99.90;;;;;;5088510;28;20048;-87
2021/06/19 01:51:09;;;;;;;43.55;18.95;;;17.10;99.90;;;;;;5089997;28;20072;-87
2021/06/19 01:53:37;;;;;;;;;;;17.10;99.90;;;;;;5071881;28;20032;-86
2021/06/19 01:56:03;;;;;;;30.48;16.35;;;17.10;99.90;;;;;;5089942;28;19920;-87
2021/06/19 01:58:30;;;;;;;39.33;19.65;;;17.10;99.90;;;;;;5088004;28;20063;-86
2021/06/19 02:00:56;;;;;;;37.35;18.92;;;17.10;99.90;;;;;;5072100;28;20044;-87
2021/06/19 02:03:22;;;;;;;41.90;23.15;;;17.20;99.90;;;;;;5088558;28;20039;-87
2021/06/19 02:05:47;;;;;;;61.13;26.83;;;17.20;99.90;;;;;;5088477;28;20063;-86
2021/06/19 02:08:13;;;;;;;44.03;24.50;;;17.20;99.90;;;;;;5087624;28;20044;-85
2021/06/19 02:10:41;;;;;;;55.88;26.70;;;17.30;99.90;;;;;;5089477;28;20543;-86
2021/06/19 02:13:08;;;;;;;46.78;24.05;;;17.30;99.90;;;;;;5087801;28;20051;-88
2021/06/19 02:15:35;;;;;;;53.95;27.08;;;17.30;99.90;;;;;;5071181;28;20040;-87
2021/06/19 02:18:02;;;;;;;48.85;25.27;;;17.40;99.90;;;;;;5088113;28;20545;-85
2021/06/19 02:20:29;;;;;;;80.05;35.80;;;17.30;99.90;;;;;;5088495;28;20651;-86
2021/06/19 02:22:56;;;;;;;56.33;30.48;;;17.30;99.90;;;;;;5089198;28;20036;-85
2021/06/19 02:25:26;;;;;;;105.35;45.55;;;17.40;99.90;;;;;;5087531;28;20551;-85
2021/06/19 02:27:56;;;;;;;93.78;41.03;;;17.50;99.90;;;;;;5088226;28;20055;-85
2021/06/19 02:30:31;;;;;;;79.90;37.47;;;17.50;99.90;;;;;;5089218;28;20542;-85
2021/06/19 02:32:57;;;;;;;109.30;44.33;;;17.50;99.90;;;;;;5087835;28;20040;-85
2021/06/19 02:35:35;;;;;;;101.45;44.63;;;17.50;99.90;;;;;;5086664;28;20089;-85
2021/06/19 02:38:02;;;;;;;114.78;45.13;;;17.50;99.90;;;;;;5088915;28;20085;-85
2021/06/19 02:40:28;;;;;;;88.32;38.63;;;17.50;99.90;;;;;;5088695;28;20071;-85
2021/06/19 02:42:54;;;;;;;51.05;26.27;;;17.40;99.90;;;;;;5089039;28;20403;-85
2021/06/19 02:45:20;;;;;;;102.78;41.97;;;17.40;99.90;;;;;;5087171;28;20051;-86
2021/06/19 02:47:54;;;;;;;61.13;28.83;;;17.30;99.90;;;;;;5088499;28;20056;-86
2021/06/19 02:50:23;;;;;;;53.40;28.13;;;17.30;99.90;;;;;;5088202;28;20043;-86
2021/06/19 02:52:50;;;;;;;62.93;30.07;;;17.30;99.90;;;;;;5087803;28;20044;-86
2021/06/19 02:55:22;;;;;;;70.00;33.15;;;17.20;99.90;;;;;;5088227;28;20428;-85
2021/06/19 02:57:48;;;;;;;92.88;40.67;;;17.20;99.90;;;;;;5089318;28;20040;-86
2021/06/19 03:00:16;;;;;;;62.80;30.40;;;17.20;99.90;;;;;;5087955;28;20496;-86
2021/06/19 03:02:42;;;;;;;52.67;28.23;;;17.30;99.90;;;;;;5087433;28;20502;-85
2021/06/19 03:05:11;;;;;;;50.47;25.33;;;17.20;99.90;;;;;;5088551;28;20067;-86
2021/06/19 03:07:37;;;;;;;70.97;34.45;;;17.20;99.90;;;;;;5087367;28;20048;-87
2021/06/19 03:10:07;;;;;;;58.50;30.45;;;17.20;99.90;;;;;;5088567;28;20048;-87
2021/06/19 03:12:33;;;;;;;69.60;32.55;;;17.20;99.90;;;;;;5086911;28;20036;-86
2021/06/19 03:14:59;;;;;;;58.95;29.52;;;17.20;99.90;;;;;;5070936;28;20044;-87
2021/06/19 03:17:25;;;;;;;56.95;27.80;;;17.20;99.90;;;;;;5088301;28;20047;-86
2021/06/19 03:19:51;;;;;;;57.03;27.85;;;17.20;99.90;;;;;;5085773;28;20050;-86
2021/06/19 03:22:17;;;;;;;68.57;34.28;;;17.20;99.90;;;;;;5088037;28;20410;-86
2021/06/19 03:24:44;;;;;;;57.97;33.42;;;17.30;99.90;;;;;;5088475;28;20040;-87
2021/06/19 03:27:12;;;;;;;67.50;35.00;;;17.30;99.90;;;;;;5088632;28;20114;-87
2021/06/19 03:29:39;;;;;;;85.00;41.55;;;17.40;99.90;;;;;;5087968;28;20051;-87
2021/06/19 03:32:06;;;;;;;75.57;38.55;;;17.40;99.90;;;;;;5088773;28;20052;-87
2021/06/19 03:34:33;;;;;;;80.50;38.65;;;17.50;99.90;;;;;;5085943;28;20024;-86
2021/06/19 03:37:00;;;;;;;77.00;39.45;;;17.50;99.90;;;;;;5079643;28;20043;-87
2021/06/19 03:39:27;;;;;;;66.28;36.03;;;17.50;99.90;;;;;;5097508;28;20109;-86
2021/06/19 03:41:54;;;;;;;71.43;37.92;;;17.60;99.90;;;;;;5087468;28;20039;-86
2021/06/19 03:44:24;;;;;;;76.35;36.28;;;17.60;99.90;;;;;;5086095;28;20071;-87
2021/06/19 03:46:50;;;;;;;;;;;17.60;99.90;;;;;;5070827;28;20048;-88
2021/06/19 03:49:16;;;;;;;71.20;35.38;;;17.60;99.90;;;;;;5090788;28;20434;-89
2021/06/19 03:51:42;;;;;;;53.85;30.58;;;17.60;99.90;;;;;;5090377;28;20122;-88
2021/06/19 03:54:08;;;;;;;50.83;27.25;;;17.70;99.90;;;;;;5074370;28;20043;-87
2021/06/19 03:56:34;;;;;;;52.03;28.83;;;17.70;99.90;;;;;;5102120;28;20101;-86
2021/06/19 03:59:00;;;;;;;49.10;26.60;;;17.70;99.90;;;;;;5087712;28;20040;-87
2021/06/19 04:01:26;;;;;;;54.08;26.10;;;17.70;99.90;;;;;;5084457;28;20135;-87
2021/06/19 04:03:52;;;;;;;48.95;26.23;;;17.80;99.90;;;;;;5074188;28;20115;-87
2021/06/19 04:06:18;;;;;;;44.38;24.42;;;17.80;99.90;;;;;;5089957;28;20048;-88
2021/06/19 04:08:44;;;;;;;54.33;27.27;;;17.80;99.90;;;;;;5090948;28;20047;-86
2021/06/19 04:11:13;;;;;;;48.30;25.40;;;17.90;99.90;;;;;;5090434;28;20396;-88
2021/06/19 04:13:39;;;;;;;47.58;26.25;;;17.90;99.90;;;;;;5090165;28;20089;-87
2021/06/19 04:16:05;;;;;;;42.85;24.60;;;18.00;99.90;;;;;;5090845;28;20066;-87
2021/06/19 04:18:31;;;;;;;51.33;26.25;;;18.00;99.90;;;;;;5090034;28;20052;-87
2021/06/19 04:20:57;;;;;;;47.78;25.80;;;18.00;99.90;;;;;;5073729;28;20105;-87
2021/06/19 04:23:22;;;;;;;50.53;26.38;;;18.10;99.90;;;;;;5089696;28;20048;-87
2021/06/19 04:25:49;;;;;;;62.05;31.38;;;18.10;99.90;;;;;;5090584;28;20040;-87
2021/06/19 04:28:15;;;;;;;51.53;27.25;;;18.20;99.90;;;;;;5107572;28;20039;-88
2021/06/19 04:30:41;;;;;;;49.92;29.17;;;18.30;99.90;;;;;;5090030;28;20401;-86
2021/06/19 04:33:07;;;;;;;44.45;24.95;;;18.30;99.90;;;;;;5073585;28;20391;-87
2021/06/19 04:35:33;;;;;;;49.33;26.08;;;18.30;99.90;;;;;;5072084;28;20048;-88
2021/06/19 04:37:59;;;;;;;51.33;27.05;;;18.40;99.90;;;;;;5090193;28;20044;-88
2021/06/19 04:43:52;;;;;;;55.42;30.40;;;18.40;99.90;;;;;;5066929;28;20407;-88
2021/06/19 04:46:16;;;;;;;45.03;26.63;;;18.40;99.90;;;;;;5084465;28;20052;-89
2021/06/19 04:48:42;;;;;;;43.80;24.52;;;18.50;99.90;;;;;;5072786;28;20067;-88
2021/06/19 04:51:07;;;;;;;45.63;25.98;;;18.50;99.90;;;;;;5079477;28;20055;-87
2021/06/19 04:53:33;;;;;;;38.60;23.55;;;18.50;99.90;;;;;;5067115;28;20396;-87
2021/06/19 04:56:03;;;;;;;35.17;23.00;;;18.40;99.90;;;;;;5089781;28;20122;-85
2021/06/19 04:58:29;;;;;;;37.67;23.50;;;18.40;99.90;;;;;;5105901;28;20132;-84
2021/06/19 05:00:55;;;;;;;40.15;22.95;;;18.50;99.90;;;;;;5088371;28;20105;-84
2021/06/19 05:03:23;;;;;;;47.33;26.17;;;18.60;99.90;;;;;;5090054;28;20488;-86
2021/06/19 05:05:52;;;;;;;41.97;23.98;;;18.60;99.90;;;;;;5089764;28;20035;-84
2021/06/19 05:08:18;;;;;;;40.50;23.40;;;18.70;99.90;;;;;;5089279;28;20051;-85
2021/06/19 05:10:45;;;;;;;43.40;25.52;;;18.80;99.90;;;;;;5088167;28;20294;-85
2021/06/19 05:13:11;;;;;;;42.58;24.88;;;18.90;99.90;;;;;;5072395;28;20088;-85
2021/06/19 05:15:37;;;;;;;41.40;23.77;;;18.90;99.90;;;;;;5088650;28;20139;-84
2021/06/19 05:18:04;;;;;;;41.15;24.98;;;18.90;99.90;;;;;;5091361;28;20122;-84
2021/06/19 05:20:31;;;;;;;40.35;24.08;;;18.90;99.90;;;;;;5090272;28;20055;-85
2021/06/19 05:22:59;;;;;;;44.15;22.42;;;19.00;99.90;;;;;;5090623;28;20040;-86
2021/06/19 05:25:27;;;;;;;41.00;22.67;;;19.00;99.90;;;;;;5088206;28;20051;-85
2021/06/19 05:27:53;;;;;;;34.75;21.77;;;19.20;99.90;;;;;;5089406;28;20077;-85
2021/06/19 05:30:20;;;;;;;32.92;21.50;;;19.30;99.90;;;;;;5088615;28;20487;-85
2021/06/19 05:32:46;;;;;;;39.38;20.05;;;19.40;99.90;;;;;;5087924;28;20058;-85
2021/06/19 05:35:12;;;;;;;25.60;19.30;;;19.50;99.90;;;;;;5086697;28;20036;-85
2021/06/19 05:37:38;;;;;;;31.38;19.48;;;19.60;99.90;;;;;;5089613;28;20051;-86
2021/06/19 05:40:07;;;;;;;32.72;20.48;;;19.60;99.90;;;;;;5102070;28;20767;-85
2021/06/19 05:42:33;;;;;;;26.95;18.33;;;19.70;99.90;;;;;;5098486;28;20047;-86
2021/06/19 05:44:59;;;;;;;28.10;16.85;;;19.60;99.90;;;;;;5104079;28;20383;-86
2021/06/19 05:47:25;;;;;;;26.08;18.40;;;19.60;99.90;;;;;;5100519;28;20478;-85
2021/06/19 05:49:51;;;;;;;30.65;17.38;;;19.60;99.90;;;;;;5101270;28;20089;-84
2021/06/19 05:52:16;;;;;;;26.52;17.85;;;19.70;99.90;;;;;;5075903;28;20060;-85
2021/06/19 05:54:42;;;;;;;24.65;17.75;;;19.50;99.90;;;;;;5112509;27;20616;-87
2021/06/19 05:57:08;;;;;;;29.38;18.45;;;19.50;99.90;;;;;;5105442;28;20062;-86
2021/06/19 05:59:35;;;;;;;24.95;18.35;;;19.60;99.90;;;;;;5119824;27;20138;-86
2021/06/19 06:02:03;;;;;;;34.75;18.83;;;19.60;99.90;;;;;;5098213;28;20047;-85
2021/06/19 06:04:30;;;;;;;26.75;18.45;;;19.70;99.90;;;;;;5104229;28;20089;-86
2021/06/19 06:06:56;;;;;;;27.95;18.50;;;19.80;99.90;;;;;;5102520;28;20036;-86
2021/06/19 06:09:22;;;;;;;24.65;17.70;;;19.80;99.90;;;;;;5117613;27;20533;-86
2021/06/19 06:11:47;;;;;;;24.50;16.80;;;19.70;99.90;;;;;;5100543;28;20127;-85
2021/06/19 06:14:13;;;;;;;25.23;16.75;;;19.80;99.90;;;;;;5087889;28;20384;-86
2021/06/19 06:16:40;;;;;;;22.08;15.82;;;19.80;99.90;;;;;;5087710;28;20044;-84
2021/06/19 06:19:06;;;;;;;27.77;16.92;;;19.80;99.90;;;;;;5071563;28;20115;-86
2021/06/19 06:21:32;;;;;;;23.60;16.08;;;19.80;99.90;;;;;;5095702;28;20135;-87
2021/06/19 06:23:57;;;;;;;22.60;14.77;;;19.90;99.90;;;;;;5097137;28;20462;-87
2021/06/19 06:26:23;;;;;;;22.55;14.27;;;19.90;99.90;;;;;;5065780;28;20127;-90
2021/06/19 06:28:49;;;;;;;21.20;15.05;;;19.90;99.90;;;;;;5071151;28;20075;-88
2021/06/19 06:31:15;;;;;;;25.38;14.05;;;19.90;99.90;;;;;;5087748;28;20047;-88
2021/06/19 06:33:41;;;;;;;21.52;13.63;;;19.90;99.90;;;;;;5104372;28;20044;-88
2021/06/19 06:36:07;;;;;;;18.75;14.48;;;19.90;99.90;;;;;;5071159;28;20119;-88
2021/06/19 06:38:33;;;;;;;19.88;14.27;;;20.00;99.90;;;;;;5070670;28;20510;-87
2021/06/19 06:40:59;;;;;;;18.92;13.50;;;20.00;99.90;;;;;;5089173;28;20066;-88
2021/06/19 06:43:25;;;;;;;29.40;14.30;;;20.00;99.90;;;;;;5076250;28;20051;-90
2021/06/19 06:45:51;;;;;;;21.90;13.07;;;20.10;99.90;;;;;;5091304;28;20113;-88
2021/06/19 06:48:16;;;;;;;22.25;14.05;;;20.10;99.90;;;;;;5075270;28;21519;-88
2021/06/19 06:50:42;;;;;;;20.35;13.80;;;20.20;99.90;;;;;;5087536;28;20071;-88
2021/06/19 06:53:08;;;;;;;19.65;14.02;;;20.10;99.90;;;;;;5087891;28;20094;-87
2021/06/19 06:55:34;;;;;;;17.10;13.05;;;20.10;99.90;;;;;;5088638;28;20143;-87
2021/06/19 06:58:00;;;;;;;18.25;12.77;;;20.10;99.90;;;;;;5089215;28;20036;-89
2021/06/19 07:00:26;;;;;;;23.55;12.20;;;20.00;99.90;;;;;;5088244;28;20043;-89
2021/06/19 07:02:52;;;;;;;15.93;10.60;;;19.90;99.90;;;;;;5083271;28;20376;-87
2021/06/19 07:05:18;;;;;;;26.33;11.15;;;19.90;99.90;;;;;;5090829;28;20450;-87
2021/06/19 07:07:44;;;;;;;14.18;10.32;;;19.90;99.90;;;;;;5086480;28;20040;-87
2021/06/19 07:10:13;;;;;;;23.40;11.45;;;19.80;99.90;;;;;;5069471;28;20155;-87
2021/06/19 07:12:43;;;;;;;18.73;10.05;;;19.80;99.90;;;;;;5094194;28;20043;-87
2021/06/19 07:15:14;;;;;;;24.23;12.63;;;19.80;99.90;;;;;;5098647;28;20055;-87
2021/06/19 07:17:41;;;;;;;29.10;11.52;;;19.80;99.90;;;;;;5099791;28;20044;-87
2021/06/19 07:20:10;;;;;;;25.00;10.90;;;19.90;99.90;;;;;;5120743;28;20046;-86
2021/06/19 07:22:36;;;;;;;19.40;10.93;;;19.90;99.90;;;;;;5087483;28;20274;-87
2021/06/19 07:25:04;;;;;;;16.92;11.40;;;19.80;99.90;;;;;;5107078;28;20100;-86
2021/06/19 07:27:30;;;;;;;14.18;11.43;;;19.80;99.90;;;;;;5093001;28;20075;-86
2021/06/19 07:29:56;;;;;;;22.10;10.95;;;19.80;99.90;;;;;;5093557;28;20093;-84
2021/06/19 07:32:25;;;;;;;24.83;11.38;;;19.90;99.90;;;;;;5077110;28;20044;-84
2021/06/19 07:34:50;;;;;;;21.30;11.75;;;19.80;99.90;;;;;;5104520;28;20032;-84
2021/06/19 07:37:16;;;;;;;19.77;10.85;;;19.90;99.90;;;;;;5120867;27;20088;-84
2021/06/19 07:39:42;;;;;;;17.42;11.70;;;20.00;99.90;;;;;;5102351;28;20074;-86
2021/06/19 07:42:09;;;;;;;28.83;11.95;;;20.00;99.90;;;;;;5105224;28;20040;-87
2021/06/19 07:44:34;;;;;;;22.25;11.80;;;20.20;99.90;;;;;;5098879;28;20074;-86
2021/06/19 07:47:00;;;;;;;29.42;12.13;;;20.40;99.90;;;;;;5105771;28;20483;-85
2021/06/19 07:49:26;;;;;;;26.33;11.07;;;20.50;99.90;;;;;;5081363;28;20045;-84
2021/06/19 07:51:53;;;;;;;16.98;10.93;;;20.50;99.90;;;;;;5070601;28;20033;-85
2021/06/19 07:54:19;;;;;;;15.90;9.73;;;20.50;99.90;;;;;;5079054;28;20047;-86
2021/06/19 07:56:47;;;;;;;12.50;9.23;;;20.60;99.90;;;;;;5117766;27;20051;-85
2021/06/19 07:59:13;;;;;;;16.50;9.48;;;20.60;99.90;;;;;;5105081;28;20050;-85
2021/06/19 08:01:40;;;;;;;13.07;7.70;;;20.60;99.90;;;;;;5099734;28;20036;-87
2021/06/19 08:04:05;;;;;;;13.15;8.10;;;20.50;99.90;;;;;;5102001;28;20394;-87
2021/06/19 08:06:31;;;;;;;14.05;8.60;;;20.50;99.90;;;;;;5092427;28;20028;-87
2021/06/19 08:08:57;;;;;;;17.48;7.95;;;20.50;99.90;;;;;;5071056;28;20068;-88
2021/06/19 08:11:23;;;;;;;9.80;6.65;;;20.50;99.90;;;;;;5091146;28;20036;-88
2021/06/19 08:13:50;;;;;;;11.00;7.25;;;20.10;99.90;;;;;;5088919;28;20036;-90
2021/06/19 08:16:19;;;;;;;11.98;6.95;;;20.10;99.90;;;;;;5089805;28;20052;-90
2021/06/19 08:18:48;;;;;;;11.70;7.50;;;20.20;99.90;;;;;;5079719;28;20036;-89
2021/06/19 08:21:14;;;;;;;11.77;7.68;;;20.20;99.90;;;;;;5070291;28;20048;-90
2021/06/19 08:23:40;;;;;;;14.02;7.28;;;20.10;99.90;;;;;;5089718;28;20437;-89
2021/06/19 08:26:06;;;;;;;12.38;7.25;;;20.20;99.90;;;;;;5077918;28;20036;-91
2021/06/19 08:28:34;;;;;;;11.52;8.10;;;20.20;99.90;;;;;;5091716;28;20134;-93
2021/06/19 08:31:01;;;;;;;10.15;7.45;;;20.30;99.90;;;;;;5089696;28;20040;-91
2021/06/19 08:33:29;;;;;;;14.48;7.80;;;20.20;99.90;;;;;;5089084;28;20574;-90
2021/06/19 08:35:54;;;;;;;9.98;7.60;;;20.30;99.90;;;;;;5092228;28;20111;-92
2021/06/19 08:38:20;;;;;;;19.52;9.57;;;20.50;99.90;;;;;;5096197;28;20126;-92
2021/06/19 08:40:46;;;;;;;16.67;9.32;;;20.60;99.90;;;;;;5093080;28;20063;-92
2021/06/19 08:43:12;;;;;;;15.38;10.13;;;20.70;99.90;;;;;;5088090;28;20035;-91
2021/06/19 08:45:39;;;;;;;18.70;9.45;;;20.70;99.90;;;;;;5106133;27;20043;-91
2021/06/19 08:48:06;;;;;;;16.50;10.63;;;21.00;99.90;;;;;;5095727;28;20060;-92
2021/06/19 08:50:32;;;;;;;17.00;10.52;;;20.90;99.90;;;;;;5076792;28;20105;-91
2021/06/19 08:52:59;;;;;;;14.10;9.90;;;20.90;99.90;;;;;;5092747;28;20068;-93
2021/06/19 08:55:26;;;;;;;16.40;11.18;;;20.40;99.90;;;;;;5094162;28;20044;-91
2021/06/19 08:57:52;;;;;;;16.30;11.32;;;20.40;99.90;;;;;;5090605;28;20434;-91
2021/06/19 09:00:18;;;;;;;19.15;11.77;;;20.40;99.90;;;;;;5082967;28;20036;-92
2021/06/19 09:02:47;;;;;;;20.60;11.55;;;20.60;99.90;;;;;;5093184;28;20394;-92
2021/06/19 09:05:16;;;;;;;15.30;10.23;;;20.80;99.90;;;;;;5088326;28;20036;-93
2021/06/19 09:07:46;;;;;;;18.25;10.57;;;20.80;99.90;;;;;;5090076;28;20443;-94
2021/06/19 09:10:17;;;;;;;15.73;10.13;;;20.80;99.90;;;;;;5096368;28;20526;-93
2021/06/19 09:13:01;;;;;;;16.13;10.57;;;20.80;99.90;;;;;;5099739;28;20048;-94
2021/06/19 09:15:30;;;;;;;23.92;10.35;;;20.80;99.90;;;;;;5083682;28;20047;-94
2021/06/19 09:18:13;;;;;;;18.50;9.77;;;21.10;99.90;;;;;;5086470;28;20036;-94
2021/06/19 09:20:48;;;;;;;15.13;9.80;;;21.30;99.90;;;;;;5085600;28;20454;-95
2021/06/19 09:23:15;;;;;;;20.20;10.25;;;21.50;99.90;;;;;;5070605;28;20041;-93
2021/06/19 09:25:41;;;;;;;15.40;9.38;;;21.60;99.90;;;;;;5079664;28;20471;-93
2021/06/19 09:28:08;;;;;;;16.42;10.35;;;21.70;99.90;;;;;;5072031;28;20051;-94
2021/06/19 09:30:35;;;;;;;18.63;10.50;;;22.00;99.90;;;;;;5090404;28;20480;-93
2021/06/19 09:33:06;;;;;;;16.88;9.88;;;22.10;99.90;;;;;;5072655;28;20043;-93
2021/06/19 09:35:35;;;;;;;19.73;10.10;;;22.40;99.90;;;;;;5089657;28;20036;-94
2021/06/19 09:38:10;;;;;;;15.73;10.10;;;22.60;99.90;;;;;;5076386;28;20101;-93
2021/06/19 09:40:40;;;;;;;14.82;9.93;;;22.90;99.90;;;;;;5080993;28;20102;-95
2021/06/19 09:43:27;;;;;;;14.32;9.80;;;23.00;99.90;;;;;;5078394;28;20051;-94
2021/06/19 09:46:10;;;;;;;15.68;10.05;;;23.10;99.90;;;;;;5082171;28;20040;-94
2021/06/19 09:48:40;;;;;;;16.85;10.10;;;23.10;99.90;;;;;;5087416;28;20059;-94
2021/06/19 09:51:23;;;;;;;16.95;10.27;;;23.30;99.90;;;;;;5101226;28;20506;-92
2021/06/19 09:53:50;;;;;;;21.27;11.00;;;23.30;99.90;;;;;;5097798;28;20093;-94
2021/06/19 09:56:19;;;;;;;16.80;10.50;;;23.40;99.90;;;;;;5088551;28;20036;-94
2021/06/19 09:58:51;;;;;;;17.85;9.63;;;23.50;99.90;;;;;;5085593;28;20044;-94
2021/06/19 10:01:32;;;;;;;20.20;10.80;;;23.70;99.90;;;;;;5088332;28;20036;-95
2021/06/19 10:03:59;;;;;;;19.42;9.98;;;23.70;99.90;;;;;;5084486;28;20051;-93
2021/06/19 10:06:27;;;;;;;16.67;9.85;;;23.70;99.90;;;;;;5080989;28;20040;-90
2021/06/19 10:08:55;;;;;;;17.45;10.82;;;23.80;99.90;;;;;;5096293;28;20040;-91
2021/06/19 10:11:25;;;;;;;17.40;9.85;;;23.80;99.90;;;;;;5122569;27;20048;-94
2021/06/19 10:13:53;;;;;;;21.33;10.82;;;23.80;99.90;;;;;;5090809;28;20077;-89
2021/06/19 10:16:19;;;;;;;14.95;10.40;;;23.80;99.90;;;;;;5089006;28;20051;-89
2021/06/19 10:18:47;;;;;;;15.93;10.80;;;24.00;99.90;;;;;;5089174;28;20150;-91
2021/06/19 10:21:14;;;;;;;15.77;10.88;;;24.20;99.90;;;;;;5088619;28;20044;-89
2021/06/19 10:23:41;;;;;;;15.57;11.00;;;24.10;99.90;;;;;;5071826;28;20043;-89
2021/06/19 10:26:07;;;;;;;18.02;11.18;;;24.00;99.90;;;;;;5088715;28;20043;-89
2021/06/19 10:28:37;;;;;;;17.95;11.43;;;24.10;99.90;;;;;;5089984;28;20491;-91
2021/06/19 10:31:03;;;;;;;13.88;9.60;;;24.00;99.90;;;;;;5075042;28;20052;-91
2021/06/19 10:33:34;;;;;;;14.77;10.00;;;24.10;99.90;;;;;;5089971;28;20058;-89
2021/06/19 10:36:10;;;;;;;16.75;10.07;;;24.00;99.90;;;;;;5080377;28;20040;-89
2021/06/19 10:38:49;;;;;;;14.75;9.57;;;24.00;99.90;;;;;;5076501;28;20051;-90
2021/06/19 10:41:17;;;;;;;14.10;8.98;;;24.00;99.90;;;;;;5089518;28;20163;-90
2021/06/19 10:43:45;;;;;;;17.02;8.60;;;24.10;99.90;;;;;;5090456;28;20040;-90
2021/06/19 10:46:27;;;;;;;13.40;7.83;;;24.20;99.90;;;;;;5089020;28;20043;-90
2021/06/19 10:48:54;;;;;;;12.27;8.18;;;24.30;99.90;;;;;;5082703;28;20302;-91
2021/06/19 10:51:25;;;;;;;10.05;7.57;;;24.50;99.90;;;;;;5076170;28;20047;-91
2021/06/19 10:54:16;;;;;;;8.63;7.30;;;24.60;99.90;;;;;;5083975;28;20047;-89
2021/06/19 10:56:56;;;;;;;13.70;7.65;;;24.80;99.90;;;;;;5084238;28;20040;-89
2021/06/19 10:59:27;;;;;;;13.48;7.68;;;24.80;99.90;;;;;;5088401;28;20043;-89
2021/06/19 11:01:58;;;;;;;12.05;8.65;;;24.80;99.90;;;;;;5090229;28;20483;-91
2021/06/19 11:04:36;;;;;;;15.25;8.77;;;24.60;99.90;;;;;;5087032;28;20467;-90
2021/06/19 11:07:23;;;;;;;10.30;7.78;;;24.40;99.90;;;;;;5084392;28;20123;-91
2021/06/19 11:09:49;;;;;;;12.38;8.18;;;24.30;99.90;;;;;;5058412;28;20113;-91
2021/06/19 11:12:34;;;;;;;9.20;7.72;;;24.40;99.90;;;;;;5069700;28;20055;-90
2021/06/19 11:15:07;;;;;;;15.38;8.75;;;24.40;99.90;;;;;;5101467;28;20042;-89
2021/06/19 11:17:33;;;;;;;12.80;8.68;;;24.50;99.90;;;;;;5086481;28;20036;-89
2021/06/19 11:20:08;;;;;;;12.20;8.35;;;24.30;99.90;;;;;;5098147;28;20118;-90
2021/06/19 11:22:58;;;;;;;13.63;10.07;;;24.40;99.90;;;;;;5087745;28;20047;-90
2021/06/19 11:25:42;;;;;;;11.25;9.13;;;24.30;99.90;;;;;;5082432;28;20059;-90
2021/06/19 11:28:24;;;;;;;14.85;9.23;;;24.40;99.90;;;;;;5088836;28;20036;-92
2021/06/19 11:30:55;;;;;;;12.70;8.73;;;24.60;99.90;;;;;;5097843;28;20040;-95
2021/06/19 11:33:24;;;;;;;16.35;9.00;;;24.80;99.90;;;;;;5089773;28;20625;-92
2021/06/19 11:35:50;;;;;;;;;;;24.90;99.90;;;;;;5088906;28;20044;-91
2021/06/19 11:38:18;;;;;;;13.70;8.65;;;24.80;99.90;;;;;;5084896;28;19963;-92
2021/06/19 11:40:45;;;;;;;11.88;8.65;;;24.80;99.90;;;;;;5094724;28;20127;-92
2021/06/19 11:43:12;;;;;;;14.68;9.85;;;25.10;99.90;;;;;;5089487;28;20171;-92
2021/06/19 11:45:40;;;;;;;19.13;9.93;;;25.10;99.90;;;;;;5107653;28;20044;-92
2021/06/19 11:48:09;;;;;;;15.48;10.18;;;25.20;99.90;;;;;;5083553;28;20079;-92
2021/06/19 11:50:41;;;;;;;13.23;10.18;;;25.10;99.90;;;;;;5090004;28;20040;-92
2021/06/19 11:53:27;;;;;;;12.50;9.63;;;25.00;99.90;;;;;;5092700;28;20514;-91
2021/06/19 11:56:14;;;;;;;11.35;9.75;;;25.00;99.90;;;;;;5089879;28;20044;-95
2021/06/19 11:59:00;;;;;;;12.57;8.93;;;25.10;99.90;;;;;;5098417;28;20032;-91
2021/06/19 12:01:33;;;;;;;10.60;8.52;;;25.40;99.90;;;;;;5103141;28;20120;-93
2021/06/19 12:04:05;;;;;;;10.30;7.78;;;25.60;99.90;;;;;;5097203;28;20047;-94
2021/06/19 12:06:32;;;;;;;10.60;8.57;;;25.70;99.90;;;;;;5098531;28;20043;-93
2021/06/19 12:08:58;;;;;;;11.50;8.32;;;26.00;99.90;;;;;;5099503;28;20040;-90
2021/06/19 12:11:26;;;;;;;9.50;6.28;;;26.10;99.90;;;;;;5093414;28;21564;-92
2021/06/19 12:13:52;;;;;;;5.43;4.68;;;26.20;99.90;;;;;;5075473;28;20036;-91
2021/06/19 12:16:18;;;;;;;6.28;5.63;;;26.40;99.90;;;;;;5054025;28;20142;-92
2021/06/19 12:18:47;;;;;;;8.13;6.80;;;26.40;99.90;;;;;;5066714;28;20059;-92
2021/06/19 12:21:14;;;;;;;7.10;6.30;;;26.10;99.90;;;;;;5088174;28;20102;-92
2021/06/19 12:23:42;;;;;;;7.50;6.60;;;26.10;99.90;;;;;;5073440;28;20043;-93
2021/06/19 12:26:16;;;;;;;8.20;6.20;;;26.00;99.90;;;;;;5093977;28;20028;-92
2021/06/19 12:28:48;;;;;;;7.00;6.40;;;26.10;99.90;;;;;;5067002;28;20051;-92
2021/06/19 12:31:15;;;;;;;9.55;6.07;;;26.40;99.90;;;;;;5080585;28;20366;-92
2021/06/19 12:33:43;;;;;;;6.72;6.13;;;26.70;99.90;;;;;;5101634;28;20045;-91
2021/06/19 12:36:12;;;;;;;7.90;5.93;;;27.00;99.90;;;;;;5074768;28;20088;-91
2021/06/19 12:38:45;;;;;;;7.78;6.97;;;27.00;99.90;;;;;;5080360;28;20044;-92